Time;durP1;ratioP1;P1;durP2;ratioP2;P2;SDS_P1;SDS_P2;PMS_P1;PMS_P2;Temp;Humidity;BMP_temperature;BMP_pressure;BME280_temperature;BME280_humidity;BME280_pressure;Samples;Min_cycle;Max_cycle;Signal;HPM_P1;HPM_P2
2022/11/26 00:02:34;;;;;;;3.10;2.72;;;;;;;3.36;100.00;99898.62;1688997;83;21624;-70
2022/11/26 00:05:28;;;;;;;2.75;2.47;;;;;;;3.37;100.00;99899.47;1696910;82;21748;-70
2022/11/26 00:08:33;;;;;;;3.77;3.47;;;;;;;3.37;100.00;99898.17;1742858;80;20976;-72
2022/11/26 00:11:15;;;;;;;4.05;3.10;;;;;;;3.35;100.00;99894.73;1760420;80;21051;-67
2022/11/26 00:13:54;;;;;;;4.70;3.35;;;;;;;3.28;100.00;99904.34;1764815;80;21675;-67
2022/11/26 00:16:41;;;;;;;4.40;3.67;;;;;;;3.27;100.00;99903.45;1746337;80;21564;-68
2022/11/26 00:19:34;;;;;;;3.37;3.05;;;;;;;3.29;100.00;99904.74;1746257;79;21544;-68
2022/11/26 00:22:32;;;;;;;3.67;3.30;;;;;;;3.28;100.00;99906.94;1758007;79;21912;-68
2022/11/26 00:25:30;;;;;;;;;;;;;;;3.27;100.00;99906.50;1754555;79;21654;-68
2022/11/26 00:28:41;;;;;;;3.02;2.62;;;;;;;3.18;100.00;99913.07;1762127;79;20455;-67
2022/11/26 00:31:35;;;;;;;4.15;2.40;;;;;;;3.19;100.00;99911.77;1750340;80;21560;-68
2022/11/26 00:34:14;;;;;;;3.50;2.63;;;;;;;3.22;100.00;99915.65;1765076;79;21556;-67
2022/11/26 00:37:08;;;;;;;2.55;2.25;;;;;;;3.26;100.00;99922.53;1754344;80;21784;-69
2022/11/26 00:39:48;;;;;;;2.50;2.30;;;;;;;3.27;100.00;99918.19;1739371;80;21517;-67
2022/11/26 00:42:41;;;;;;;2.17;2.05;;;;;;;3.27;100.00;99920.34;1745583;79;21532;-67
2022/11/26 00:45:23;;;;;;;2.90;2.20;;;;;;;3.31;100.00;99916.87;1750108;79;21595;-68
2022/11/26 00:48:16;;;;;;;2.20;2.02;;;;;;;3.35;100.00;99916.38;1750012;79;21505;-69
2022/11/26 00:50:56;;;;;;;2.47;2.22;;;;;;;3.40;100.00;99915.05;1761630;80;21865;-67
2022/11/26 00:53:36;;;;;;;2.17;1.98;;;;;;;3.42;100.00;99913.30;1753190;79;21698;-68
2022/11/26 00:56:26;;;;;;;2.67;1.95;;;;;;;3.40;100.00;99918.50;1761725;79;20997;-66
2022/11/26 00:59:23;;;;;;;2.52;2.30;;;;;;;3.40;100.00;99915.05;1739702;80;21629;-68
2022/11/26 01:02:17;;;;;;;6.10;3.17;;;;;;;3.37;100.00;99915.95;1740759;79;21423;-68
2022/11/26 01:05:12;;;;;;;3.85;2.87;;;;;;;3.31;100.00;99912.97;1762080;80;21937;-68
2022/11/26 01:08:08;;;;;;;2.98;2.67;;;;;;;3.32;100.00;99912.52;1756434;80;21500;-69
2022/11/26 01:11:04;;;;;;;2.47;2.27;;;;;;;3.36;100.00;99912.91;1757433;80;22014;-66
2022/11/26 01:13:59;;;;;;;3.75;3.10;;;;;;;3.40;100.00;99917.20;1753448;79;21612;-68
2022/11/26 01:16:53;;;;;;;3.77;3.17;;;;;;;3.41;100.00;99909.84;1749631;80;21532;-69
2022/11/26 01:19:35;;;;;;;4.12;3.52;;;;;;;3.43;100.00;99913.29;1759611;80;21433;-69
2022/11/26 01:22:29;;;;;;;3.87;2.65;;;;;;;3.48;100.00;99910.63;1757382;80;21618;-68
2022/11/26 01:25:09;;;;;;;3.00;2.70;;;;;;;3.47;100.00;99916.28;1749819;80;21668;-68
2022/11/26 01:28:03;;;;;;;3.20;2.87;;;;;;;3.45;100.00;99911.53;1747641;79;21675;-67
2022/11/26 01:30:44;;;;;;;4.03;3.30;;;;;;;3.48;100.00;99915.83;1734131;79;21632;-68
2022/11/26 01:33:37;;;;;;;4.90;3.30;;;;;;;3.50;100.00;99907.58;1765204;80;21502;-66
2022/11/26 01:36:34;;;;;;;3.40;3.05;;;;;;;3.50;100.00;99915.38;1755748;78;21514;-67
2022/11/26 01:39:29;;;;;;;3.70;2.90;;;;;;;3.48;100.00;99910.22;1747617;80;21190;-66
2022/11/26 01:42:30;;;;;;;3.67;2.90;;;;;;;3.42;100.00;99908.09;1755710;80;21488;-68
2022/11/26 01:45:26;;;;;;;3.67;3.00;;;;;;;3.47;100.00;99910.22;1747018;80;21473;-69
2022/11/26 01:48:38;;;;;;;4.85;2.55;;;;;;;3.53;100.00;99904.95;1763804;79;21680;-67
2022/11/26 01:51:32;;;;;;;2.90;2.60;;;;;;;3.55;100.00;99911.00;1760582;80;21520;-68
2022/11/26 01:54:18;;;;;;;3.00;2.15;;;;;;;3.53;100.00;99910.16;1758494;80;21837;-67
2022/11/26 01:57:19;;;;;;;2.58;2.10;;;;;;;3.48;100.00;99921.03;1761053;80;21631;-67
2022/11/26 02:00:14;;;;;;;2.60;2.05;;;;;;;3.43;100.00;99919.79;1760879;78;21579;-68
2022/11/26 02:03:08;;;;;;;2.27;1.80;;;;;;;3.42;100.00;99918.05;1755217;79;21560;-68
2022/11/26 02:06:11;;;;;;;2.20;1.72;;;;;;;3.39;100.00;99913.31;1757024;80;21053;-68
2022/11/26 02:09:07;;;;;;;2.20;1.85;;;;;;;3.38;100.00;99918.95;1745577;80;21698;-69
2022/11/26 02:12:01;;;;;;;1.90;1.80;;;;;;;3.36;100.00;99925.91;1743258;79;21623;-66
2022/11/26 02:14:55;;;;;;;2.30;1.87;;;;;;;3.47;100.00;99922.77;1751473;79;21072;-66
2022/11/26 02:17:49;;;;;;;2.87;1.85;;;;;;;3.46;100.00;99930.14;1764017;80;22016;-68
2022/11/26 02:20:55;;;;;;;2.98;1.77;;;;;;;3.46;100.00;99934.48;1756760;80;21025;-68
2022/11/26 02:24:05;;;;;;;2.27;1.70;;;;;;;3.50;100.00;99931.86;1748616;80;21606;-66
2022/11/26 02:27:18;;;;;;;2.80;2.08;;;;;;;3.49;100.00;99931.87;1749449;80;21545;-66
2022/11/26 02:30:18;;;;;;;1.62;1.52;;;;;;;3.48;100.00;99934.03;1735200;80;21422;-67
2022/11/26 02:33:29;;;;;;;2.35;1.67;;;;;;;3.46;100.00;99950.08;1736868;79;21791;-66
2022/11/26 02:36:46;;;;;;;1.90;1.80;;;;;;;3.48;100.00;99949.63;1741680;80;21461;-69
2022/11/26 02:39:39;;;;;;;1.62;1.52;;;;;;;3.48;100.00;99948.33;1758905;80;21568;-69
2022/11/26 02:42:38;;;;;;;2.20;1.70;;;;;;;3.42;100.00;99951.84;1763832;80;21551;-68
2022/11/26 02:45:36;;;;;;;1.98;1.77;;;;;;;3.40;100.00;99954.89;1741095;80;21080;-68
2022/11/26 02:48:31;;;;;;;;;;;;;;;3.31;100.00;99957.57;1749872;80;21848;-69
2022/11/26 02:51:30;;;;;;;1.95;1.55;;;;;;;3.30;100.00;99959.77;1755653;80;20426;-67
2022/11/26 02:54:17;;;;;;;2.85;1.52;;;;;;;3.36;100.00;99970.09;1727435;80;21616;-66
2022/11/26 02:57:13;;;;;;;2.22;1.77;;;;;;;3.42;100.00;99967.89;1748783;80;21595;-69
2022/11/26 03:00:06;;;;;;;2.25;1.60;;;;;;;3.41;100.00;99978.73;1736123;80;21506;-68
2022/11/26 03:03:07;;;;;;;2.90;2.05;;;;;;;3.41;100.00;99972.23;1756387;80;21789;-67
2022/11/26 03:05:47;;;;;;;1.92;1.82;;;;;;;3.46;100.00;99973.48;1764437;79;21182;-67
2022/11/26 03:08:41;;;;;;;1.82;1.42;;;;;;;3.46;100.00;99976.08;1750711;80;21442;-67
2022/11/26 03:11:21;;;;;;;2.00;1.60;;;;;;;3.49;100.00;99975.62;1738129;79;21450;-69
2022/11/26 03:14:14;;;;;;;1.52;1.40;;;;;;;3.49;100.00;99977.36;1756280;80;21599;-69
2022/11/26 03:17:00;;;;;;;1.70;1.40;;;;;;;3.48;100.00;99967.41;1742231;80;21883;-69
2022/11/26 03:19:54;;;;;;;1.52;1.42;;;;;;;3.51;100.00;99963.47;1735287;80;21501;-69
2022/11/26 03:22:48;;;;;;;2.62;1.62;;;;;;;3.53;100.00;99962.60;1750807;79;21462;-68
2022/11/26 03:25:42;;;;;;;1.82;1.62;;;;;;;3.54;100.00;99957.36;1760066;80;21987;-69
2022/11/26 03:28:36;;;;;;;1.92;1.20;;;;;;;3.51;100.00;99971.27;1753364;80;21478;-69
2022/11/26 03:31:30;;;;;;;1.67;1.50;;;;;;;3.49;100.00;99965.66;1750468;80;21862;-67
2022/11/26 03:34:10;;;;;;;1.60;1.50;;;;;;;3.49;100.00;99974.77;1764801;80;21552;-67
2022/11/26 03:37:03;;;;;;;3.40;1.42;;;;;;;3.50;100.00;99971.27;1743287;80;21564;-68
2022/11/26 03:39:43;;;;;;;2.02;1.52;;;;;;;3.52;100.00;99974.72;1758021;79;21524;-68
2022/11/26 03:42:37;;;;;;;1.80;1.50;;;;;;;3.55;100.00;99979.05;1737741;80;21533;-69
2022/11/26 03:45:31;;;;;;;1.80;1.70;;;;;;;3.54;100.00;99978.61;1766709;79;21973;-68
2022/11/26 03:48:24;;;;;;;2.12;1.60;;;;;;;3.55;100.00;99982.95;1755813;80;21540;-68
2022/11/26 03:51:11;;;;;;;4.10;1.37;;;;;;;3.53;100.00;99985.55;1725540;80;21695;-68
2022/11/26 03:54:06;;;;;;;1.80;1.45;;;;;;;3.54;100.00;99988.56;1759733;79;21619;-69
2022/11/26 03:56:59;;;;;;;1.55;1.30;;;;;;;3.48;100.00;99985.61;1753187;80;21534;-68
2022/11/26 03:59:53;;;;;;;1.40;1.30;;;;;;;3.46;100.00;99989.93;1757627;79;21896;-68
2022/11/26 04:02:32;;;;;;;1.25;1.15;;;;;;;3.48;100.00;99993.41;1755792;79;21602;-69
2022/11/26 04:05:12;;;;;;;1.82;1.25;;;;;;;3.49;100.00;99992.97;1750006;80;21722;-68
2022/11/26 04:07:59;;;;;;;1.30;1.20;;;;;;;3.51;100.00;99996.41;1761378;79;21582;-69
2022/11/26 04:10:53;;;;;;;1.50;1.40;;;;;;;3.52;100.00;99994.22;1761260;78;21693;-67
2022/11/26 04:13:48;;;;;;;2.35;1.50;;;;;;;3.54;100.00;100001.56;1748581;80;22136;-69
2022/11/26 04:16:43;;;;;;;4.45;1.52;;;;;;;3.55;100.00;100001.15;1755658;80;21560;-70
2022/11/26 04:19:23;;;;;;;1.45;1.30;;;;;;;3.53;100.00;100001.61;1714684;80;21438;-68
2022/11/26 04:22:17;;;;;;;1.72;1.17;;;;;;;3.53;100.00;100012.86;1744677;80;21647;-69
2022/11/26 04:25:04;;;;;;;1.50;1.40;;;;;;;3.56;100.00;100013.25;1756919;80;21564;-69
2022/11/26 04:27:57;;;;;;;1.37;1.27;;;;;;;3.56;100.00;100011.55;1746583;80;21818;-69
2022/11/26 04:30:45;;;;;;;1.50;1.40;;;;;;;3.56;100.00;100014.56;1746970;80;21520;-69
2022/11/26 04:33:38;;;;;;;1.50;1.40;;;;;;;3.51;100.00;100014.16;1748001;80;21159;-67
2022/11/26 04:36:26;;;;;;;1.50;1.27;;;;;;;3.52;100.00;100009.81;1739557;80;21585;-65
2022/11/26 04:39:19;;;;;;;1.27;1.20;;;;;;;3.50;100.00;100015.47;1737568;80;21691;-66
2022/11/26 04:41:52;;;;;;;1.17;1.07;;;;;;;3.48;100.00;100009.01;1755379;79;21942;-70
2022/11/26 04:44:39;;;;;;;1.50;1.40;;;;;;;3.45;100.00;100014.66;1757193;79;21683;-67
2022/11/26 04:47:34;;;;;;;1.25;1.02;;;;;;;3.46;100.00;100021.57;1740782;80;21490;-67
2022/11/26 10:56:16;;;;;;;5.08;4.08;;;;;;;4.34;100.00;100247.25;1858326;75;23217;-62
2022/11/26 10:58:43;;;;;;;4.10;3.70;;;;;;;3.84;100.00;100240.20;1792151;77;20906;-67
2022/11/26 11:01:12;;;;;;;4.45;3.85;;;;;;;3.68;100.00;100242.88;1829775;77;21799;-66
2022/11/26 11:03:48;;;;;;;3.72;3.42;;;;;;;3.64;100.00;100244.22;1839210;77;21477;-65
2022/11/26 11:06:24;;;;;;;3.83;3.42;;;;;;;3.62;100.00;100251.17;1827799;77;28158;-74
2022/11/26 11:08:51;;;;;;;4.62;3.50;;;;;;;3.59;100.00;100255.93;1826508;77;21509;-69
2022/11/26 11:11:23;;;;;;;3.80;3.40;;;;;;;3.66;100.00;100258.08;1834833;77;21551;-71
2022/11/26 11:13:49;;;;;;;3.62;3.27;;;;;;;3.68;100.00;100253.73;1838988;77;21532;-69
2022/11/26 11:16:39;;;;;;;3.62;3.17;;;;;;;3.68;100.00;100261.09;1831451;77;21477;-71
2022/11/26 11:19:22;;;;;;;3.77;3.40;;;;;;;3.61;100.00;100264.59;1807603;77;21005;-73
2022/11/26 11:21:49;;;;;;;3.77;3.00;;;;;;;3.63;100.00;100267.19;1824057;77;21563;-70
2022/11/26 11:24:28;;;;;;;4.28;3.60;;;;;;;3.59;100.00;100276.73;1834253;77;21630;-67
2022/11/26 11:26:56;;;;;;;3.30;3.00;;;;;;;3.63;100.00;100276.28;1826885;77;21819;-66
2022/11/26 14:45:32;;;;;;;3.55;3.25;;;;;;;3.12;100.00;100430.63;1743493;80;21549;-70
2022/11/26 14:47:59;;;;;;;4.03;3.62;;;;;;;3.15;100.00;100424.58;1760386;79;21627;-72
2022/11/26 14:50:28;;;;;;;3.98;3.58;;;;;;;3.19;100.00;100431.50;1760531;79;21484;-71
2022/11/26 14:52:59;;;;;;;4.58;3.98;;;;;;;3.24;100.00;100433.68;1754301;79;21523;-74
2022/11/26 14:55:29;;;;;;;4.08;3.67;;;;;;;3.28;100.00;100436.70;1745784;80;21520;-69
2022/11/26 14:58:10;;;;;;;3.83;3.52;;;;;;;3.33;100.00;100440.59;1749820;80;21731;-69
2022/11/26 15:00:39;;;;;;;4.22;3.83;;;;;;;3.38;100.00;100436.70;1754687;79;21422;-69
2022/11/26 15:03:24;;;;;;;4.10;3.80;;;;;;;3.44;100.00;100433.64;1749907;80;21492;-69
2022/11/26 15:05:50;;;;;;;3.83;3.52;;;;;;;3.49;100.00;100432.36;1762005;80;21580;-70
2022/11/26 15:08:19;;;;;;;6.47;3.67;;;;;;;3.48;100.00;100426.30;1751921;80;21599;-69
2022/11/26 15:10:56;;;;;;;3.60;3.40;;;;;;;3.44;100.00;100431.05;1743001;80;21801;-70
2022/11/26 15:13:45;;;;;;;4.22;3.87;;;;;;;3.42;100.00;100430.19;1757463;80;21527;-70
2022/11/26 15:16:36;;;;;;;4.33;3.92;;;;;;;3.42;100.00;100433.23;1760404;80;21055;-65
2022/11/26 15:19:04;;;;;;;4.15;3.85;;;;;;;3.42;100.00;100430.63;1770023;80;21541;-66
2022/11/26 15:21:30;;;;;;;3.98;3.67;;;;;;;3.43;100.00;100440.17;1757630;79;21580;-69
2022/11/26 15:23:59;;;;;;;4.58;4.20;;;;;;;3.46;100.00;100439.70;1752542;80;21792;-67
2022/11/26 19:56:18;;;;;;;8.53;6.67;;;;;;;2.26;100.00;100642.39;1712024;82;21079;-68
2022/11/26 19:58:45;;;;;;;9.20;7.40;;;;;;;2.42;100.00;100631.26;1709633;82;21869;-68
2022/11/26 20:01:14;;;;;;;7.58;6.70;;;;;;;2.54;100.00;100613.58;1714443;82;21064;-69
2022/11/26 20:03:41;;;;;;;9.75;7.28;;;;;;;2.65;100.00;100595.03;1714066;82;21690;-70
2022/11/26 20:06:16;;;;;;;7.80;7.00;;;;;;;2.79;100.00;100580.83;1690821;84;21529;-67
2022/11/26 20:08:42;;;;;;;7.87;6.78;;;;;;;2.91;100.00;100578.70;1705165;82;21569;-67
2022/11/26 20:11:09;;;;;;;6.83;6.17;;;;;;;2.99;100.00;100571.78;1700313;81;21692;-71
2022/11/26 20:13:38;;;;;;;6.72;5.95;;;;;;;3.07;100.00;100568.80;1711851;82;21497;-69
2022/11/26 20:16:08;;;;;;;8.35;6.12;;;;;;;3.19;100.00;100565.79;1714824;82;20990;-70
2022/11/26 20:18:37;;;;;;;6.28;5.62;;;;;;;3.25;100.00;100564.05;1719001;82;21025;-70
2022/11/26 20:21:06;;;;;;;6.20;5.60;;;;;;;3.30;100.00;100562.78;1716549;82;21161;-69
2022/11/26 20:23:33;;;;;;;5.95;5.42;;;;;;;3.35;100.00;100564.07;1685656;84;21862;-72
2022/11/26 20:26:00;;;;;;;6.17;5.33;;;;;;;3.34;100.00;100563.21;1709092;82;21564;-70
2022/11/26 20:28:27;;;;;;;5.78;5.05;;;;;;;3.36;100.00;100563.22;1706937;82;21588;-70
2022/11/26 20:30:53;;;;;;;6.15;5.17;;;;;;;3.39;100.00;100564.09;1692340;82;21330;-69
2022/11/26 20:33:21;;;;;;;5.13;4.70;;;;;;;3.42;100.00;100552.82;1690789;84;21414;-69
2022/11/26 20:35:48;;;;;;;;;;;;;;;3.42;100.00;100556.28;1711039;82;21830;-70
2022/11/26 20:38:14;;;;;;;4.92;4.50;;;;;;;3.37;100.00;100559.33;1719882;82;20415;-69
2022/11/26 20:40:43;;;;;;;5.58;4.75;;;;;;;3.42;100.00;100562.78;1713949;82;21618;-67
2022/11/26 20:43:10;;;;;;;4.93;4.53;;;;;;;3.47;100.00;100560.20;1706765;82;21601;-69
2022/11/26 20:45:37;;;;;;;5.70;5.20;;;;;;;3.49;100.00;100555.42;1691076;82;21867;-70
2022/11/26 20:48:04;;;;;;;6.28;5.12;;;;;;;3.49;100.00;100563.22;1710179;82;21881;-72
2022/11/26 20:50:31;;;;;;;5.40;4.60;;;;;;;3.53;100.00;100566.70;1705247;82;21433;-72
2022/11/26 20:52:57;;;;;;;5.15;4.70;;;;;;;3.56;100.00;100565.81;1711675;82;21030;-72
2022/11/26 20:55:24;;;;;;;4.75;4.35;;;;;;;3.57;100.00;100568.42;1708071;82;21505;-71
2022/11/26 20:57:50;;;;;;;4.97;4.58;;;;;;;3.60;100.00;100576.24;1702282;83;21638;-71
2022/11/26 21:00:17;;;;;;;6.08;4.58;;;;;;;3.72;100.00;100576.67;1694982;83;21917;-72
2022/11/26 21:02:45;;;;;;;5.40;4.90;;;;;;;3.79;100.00;100584.91;1703142;83;21572;-71
2022/11/26 21:05:13;;;;;;;5.65;5.05;;;;;;;3.81;100.00;100581.88;1716299;83;20982;-71
2022/11/26 21:07:41;;;;;;;4.92;4.37;;;;;;;3.67;100.00;100568.88;1698488;83;21517;-72
2022/11/26 21:10:09;;;;;;;4.55;4.15;;;;;;;3.76;100.00;100583.60;1711663;83;20951;-72
2022/11/26 21:12:36;;;;;;;4.12;3.80;;;;;;;3.75;100.00;100590.99;1704461;83;21819;-72
2022/11/26 21:15:05;;;;;;;4.95;3.87;;;;;;;3.76;100.00;100588.80;1699249;83;21407;-71
2022/11/26 21:17:32;;;;;;;4.33;3.77;;;;;;;3.76;100.00;100590.11;1688302;83;21668;-72
2022/11/26 21:19:58;;;;;;;4.05;3.65;;;;;;;3.75;100.00;100581.00;1699935;83;21611;-71
2022/11/26 21:22:25;;;;;;;4.05;3.65;;;;;;;3.76;100.00;100587.50;1707557;83;21467;-71
2022/11/26 21:24:52;;;;;;;3.62;3.33;;;;;;;3.71;100.00;100591.83;1715493;83;22177;-71
2022/11/26 21:27:18;;;;;;;4.08;3.45;;;;;;;3.69;100.00;100591.86;1707848;83;21537;-71
2022/11/26 21:29:45;;;;;;;3.62;3.33;;;;;;;3.69;100.00;100591.86;1710368;83;21811;-71
2022/11/26 21:32:12;;;;;;;4.00;3.60;;;;;;;3.69;100.00;100594.87;1710362;83;21023;-72
2022/11/26 21:34:38;;;;;;;3.72;3.42;;;;;;;3.70;100.00;100594.02;1713122;83;21503;-71
2022/11/26 21:37:06;;;;;;;3.92;3.42;;;;;;;3.73;100.00;100594.44;1705217;83;21786;-71
2022/11/26 21:39:33;;;;;;;3.67;3.37;;;;;;;3.69;100.00;100598.77;1698970;83;21593;-72
2022/11/26 21:42:00;;;;;;;4.08;3.67;;;;;;;3.70;100.00;100604.42;1704415;83;21510;-71
2022/11/26 21:44:26;;;;;;;3.47;3.12;;;;;;;3.67;100.00;100606.59;1693640;83;21547;-72
2022/11/26 21:46:53;;;;;;;3.90;3.50;;;;;;;3.68;100.00;100604.41;1700256;83;20958;-72
2022/11/26 21:49:20;;;;;;;3.72;3.42;;;;;;;3.71;100.00;100607.44;1699129;83;21797;-72
2022/11/26 21:51:47;;;;;;;3.70;3.40;;;;;;;3.68;100.00;100601.81;1704081;83;21520;-72
2022/11/26 21:54:13;;;;;;;3.27;2.98;;;;;;;3.67;100.00;100604.41;1706753;83;21530;-72
2022/11/26 21:56:40;;;;;;;3.00;2.80;;;;;;;3.68;100.00;100601.81;1711563;82;20953;-72
2022/11/26 21:59:08;;;;;;;3.67;3.25;;;;;;;3.68;100.00;100604.41;1722398;82;20989;-72
2022/11/26 22:01:35;;;;;;;3.17;2.70;;;;;;;3.67;100.00;100603.11;1713322;82;21849;-72
2022/11/26 22:04:08;;;;;;;3.30;3.00;;;;;;;3.63;100.00;100614.38;1714616;82;21526;-72
2022/11/26 22:06:34;;;;;;;3.05;2.75;;;;;;;3.63;100.00;100615.23;1709602;82;21560;-71
2022/11/26 22:09:02;;;;;;;2.75;2.55;;;;;;;3.66;100.00;100617.00;1720770;82;21462;-73
2022/11/26 22:11:30;;;;;;;3.27;2.97;;;;;;;3.63;100.00;100613.08;1717715;82;21529;-71
2022/11/26 22:13:57;;;;;;;3.02;2.75;;;;;;;3.65;100.00;100613.50;1717494;82;21851;-72
2022/11/26 22:16:25;;;;;;;2.40;2.20;;;;;;;3.67;100.00;100609.20;1719336;82;21544;-72
2022/11/26 22:18:55;;;;;;;2.87;2.42;;;;;;;3.67;100.00;100609.61;1715165;82;21555;-71
